createdAt,value
2023-02-22T00:01:50.970Z,100218.78
2023-02-22T00:04:54.952Z,100213.66
2023-02-22T00:07:58.007Z,100210.13
2023-02-22T00:11:03.914Z,100212.91
2023-02-22T00:14:06.456Z,100211.62
2023-02-22T00:17:09.744Z,100214.13
2023-02-22T00:20:14.183Z,100220.22
2023-02-22T00:23:21.118Z,100230.66
2023-02-22T00:26:23.657Z,100224.63
2023-02-22T00:29:26.811Z,100221.03
2023-02-22T00:32:29.664Z,100223.53
2023-02-22T00:35:32.917Z,100228.78
2023-02-22T00:38:35.678Z,100223.53
2023-02-22T00:41:38.732Z,100229.78
2023-02-22T00:44:41.180Z,100233.63
2023-02-22T00:47:45.003Z,100228.47
2023-02-22T00:50:50.643Z,100236.09
2023-02-22T00:53:53.753Z,100235.97
2023-02-22T00:56:58.291Z,100241.94
2023-02-22T01:00:11.991Z,100233.94
2023-02-22T01:03:17.073Z,100229.53
2023-02-22T01:06:21.232Z,100231.19
2023-02-22T01:09:23.601Z,100227.69
2023-02-22T01:12:28.313Z,100223.28
2023-02-22T01:15:30.989Z,100225.94
2023-02-22T01:18:36.188Z,100227.09
2023-02-22T01:21:40.647Z,100220.03
2023-02-22T01:24:43.793Z,100226.00
2023-02-22T01:27:46.436Z,100227.75
2023-02-22T01:30:49.980Z,100233.31
2023-02-22T01:33:52.598Z,100229.75
2023-02-22T01:36:56.565Z,100222.12
2023-02-22T01:39:58.958Z,100216.94
2023-02-22T01:43:23.561Z,100213.50
2023-02-22T01:46:27.498Z,100215.28
2023-02-22T01:49:42.388Z,100208.44
2023-02-22T01:52:44.958Z,100213.59
2023-02-22T01:55:48.667Z,100203.88
2023-02-22T01:58:57.303Z,100216.03
2023-02-22T02:02:00.870Z,100208.22
2023-02-22T02:05:08.347Z,100209.22
2023-02-22T02:08:22.126Z,100208.06
2023-02-22T02:11:26.024Z,100213.06
2023-02-22T02:14:32.039Z,100206.00
2023-02-22T02:17:37.143Z,100210.28
2023-02-22T02:20:42.910Z,100202.47
2023-02-22T02:24:03.366Z,100211.16
2023-02-22T02:27:17.134Z,100207.06
2023-02-22T02:30:36.222Z,100204.62
2023-02-22T02:33:59.309Z,100205.38
2023-02-22T02:37:16.309Z,100208.91
2023-02-22T02:40:32.126Z,100202.84
2023-02-22T02:43:53.598Z,100209.91
2023-02-22T02:47:02.046Z,100206.31
2023-02-22T02:50:25.969Z,100213.37
2023-02-22T02:53:39.368Z,100209.84
2023-02-22T02:56:45.604Z,100215.22
2023-02-22T02:59:48.773Z,100216.81
2023-02-22T03:03:17.510Z,100212.56
2023-02-22T03:07:02.586Z,100214.38
2023-02-22T03:10:30.499Z,100213.44
2023-02-22T03:13:40.724Z,100218.38
2023-02-22T03:16:52.603Z,100209.84
2023-02-22T03:20:02.022Z,100213.16
2023-02-22T03:23:15.552Z,100213.16
2023-02-22T03:26:28.111Z,100214.00
2023-02-22T03:29:35.614Z,100212.22
2023-02-22T03:32:42.872Z,100215.75
2023-02-22T03:35:56.863Z,100206.31
2023-02-22T03:39:04.303Z,100216.00
2023-02-22T03:42:17.517Z,100219.66
2023-02-22T03:45:24.788Z,100211.94
2023-02-22T03:48:49.839Z,100211.13
2023-02-22T03:51:53.375Z,100217.91
2023-02-22T03:54:56.450Z,100208.59
2023-02-22T03:58:03.277Z,100217.16
2023-02-22T04:01:06.584Z,100220.81
2023-02-22T04:04:09.653Z,100226.94
2023-02-22T04:07:13.110Z,100223.41
2023-02-22T04:10:17.206Z,100231.97
2023-02-22T04:13:20.088Z,100238.13
2023-02-22T04:16:23.533Z,100243.47
2023-02-22T04:19:26.549Z,100231.53
2023-02-22T04:22:30.206Z,100230.59
2023-02-22T04:25:32.941Z,100234.78
2023-02-22T04:28:40.946Z,100230.66
2023-02-22T04:31:43.929Z,100236.69
2023-02-22T04:34:47.841Z,100235.12
2023-02-22T04:37:50.557Z,100231.28
2023-02-22T04:40:55.512Z,100236.41
2023-02-22T04:43:58.061Z,100225.91
2023-02-22T04:47:01.501Z,100228.47
2023-02-22T04:50:09.000Z,100236.03
2023-02-22T04:53:12.235Z,100236.69
2023-02-22T04:56:18.087Z,100249.00
2023-02-22T04:59:21.589Z,100246.91
2023-02-22T05:02:28.613Z,100246.78
2023-02-22T05:05:31.619Z,100254.56
2023-02-22T05:08:34.169Z,100250.28
2023-02-22T05:11:37.282Z,100247.59
2023-02-22T05:14:39.915Z,100245.34
2023-02-22T05:17:43.011Z,100238.19
2023-02-22T05:20:45.582Z,100247.72
2023-02-22T05:23:48.689Z,100249.88
2023-02-22T05:26:54.227Z,100250.63
2023-02-22T05:29:57.315Z,100264.31
2023-02-22T05:33:00.744Z,100262.88
2023-02-22T05:36:03.901Z,100261.00
2023-02-22T05:39:06.605Z,100259.81
2023-02-22T05:42:09.582Z,100260.50
2023-02-22T05:45:16.645Z,100271.66
2023-02-22T05:48:22.219Z,100275.13
2023-02-22T05:51:25.198Z,100285.38
2023-02-22T05:54:28.374Z,100282.69
2023-02-22T05:57:31.222Z,100293.88
2023-02-22T06:00:34.421Z,100293.88
2023-02-22T06:03:37.388Z,100299.75
2023-02-22T06:06:40.191Z,100312.72
2023-02-22T06:09:43.158Z,100309.25
2023-02-22T06:12:47.301Z,100312.50
2023-02-22T06:15:50.114Z,100324.09
2023-02-22T06:18:53.010Z,100322.66
2023-02-22T06:22:00.002Z,100321.28
2023-02-22T06:25:04.379Z,100327.12
2023-02-22T06:28:10.158Z,100323.91
2023-02-22T06:31:13.014Z,100324.28
2023-02-22T06:34:16.252Z,100328.94
2023-02-22T06:37:19.134Z,100336.00
2023-02-22T06:40:21.934Z,100328.94
2023-02-22T06:43:25.884Z,100335.03
2023-02-22T06:46:28.929Z,100332.81
2023-02-22T06:49:31.749Z,100334.94
2023-02-22T06:52:34.615Z,100330.94
2023-02-22T06:55:37.447Z,100334.75
2023-02-22T06:58:40.242Z,100324.16
2023-02-22T07:01:43.632Z,100328.97
2023-02-22T07:04:46.543Z,100327.59
2023-02-22T07:07:51.023Z,100329.53
2023-02-22T07:10:53.912Z,100322.22
2023-02-22T07:13:56.895Z,100320.41
2023-02-22T07:16:59.710Z,100325.81
2023-02-22T07:20:03.549Z,100327.59
2023-02-22T07:23:06.413Z,100334.78
2023-02-22T07:26:09.217Z,100339.44
2023-02-22T07:29:11.991Z,100336.00
2023-02-22T07:32:14.979Z,100331.97
2023-02-22T07:35:20.361Z,100335.00
2023-02-22T07:38:23.158Z,100335.78
2023-02-22T07:41:26.154Z,100325.09
2023-02-22T07:44:29.217Z,100329.09
2023-02-22T07:47:32.019Z,100326.97
2023-02-22T07:50:36.016Z,100330.31
2023-02-22T07:53:38.856Z,100333.97
2023-02-22T07:56:48.848Z,100327.28
2023-02-22T07:59:51.770Z,100322.56
2023-02-22T08:02:55.066Z,100331.13
2023-02-22T08:06:00.615Z,100325.25
2023-02-22T08:09:03.533Z,100320.84
2023-02-22T08:12:06.992Z,100324.69
2023-02-22T08:15:16.965Z,100315.19
2023-02-22T08:18:21.966Z,100309.47
2023-02-22T08:21:24.844Z,100315.72
2023-02-22T08:24:27.680Z,100313.25
2023-02-22T08:27:31.222Z,100316.62
2023-02-22T08:30:35.481Z,100314.34
2023-02-22T08:33:38.837Z,100318.16
2023-02-22T08:36:42.650Z,100305.41
2023-02-22T08:39:45.569Z,100310.31
2023-02-22T08:42:48.385Z,100311.03
2023-02-22T08:45:52.035Z,100324.78
2023-02-22T08:48:55.084Z,100317.75
2023-02-22T08:51:58.190Z,100322.44
2023-02-22T08:55:01.868Z,100313.44
2023-02-22T08:58:09.377Z,100318.47
2023-02-22T09:01:14.030Z,100325.53
2023-02-22T09:04:18.441Z,100327.72
2023-02-22T09:07:21.361Z,100322.59
2023-02-22T09:10:27.517Z,100323.06
2023-02-22T09:13:30.345Z,100324.22
2023-02-22T09:16:33.731Z,100325.28
2023-02-22T09:19:36.655Z,100326.13
2023-02-22T09:22:40.411Z,100326.06
2023-02-22T09:25:43.372Z,100321.69
2023-02-22T09:28:46.241Z,100323.38
2023-02-22T09:31:50.753Z,100328.63
2023-02-22T09:34:54.016Z,100329.41
2023-02-22T09:37:58.766Z,100319.53
2023-02-22T09:41:16.783Z,100317.69
2023-02-22T09:44:41.231Z,100321.19
2023-02-22T09:47:50.139Z,100324.81
2023-02-22T09:50:59.043Z,100322.88
2023-02-22T09:54:06.497Z,100319.88
2023-02-22T09:57:16.211Z,100325.66
2023-02-22T10:00:21.378Z,100326.38
2023-02-22T10:03:44.884Z,100319.31
2023-02-22T10:07:11.701Z,100321.13
2023-02-22T10:10:18.649Z,100328.19
2023-02-22T10:13:34.823Z,100322.00
2023-02-22T10:16:47.507Z,100318.72
2023-02-22T10:20:06.445Z,100313.56
2023-02-22T10:23:23.890Z,100311.03
2023-02-22T10:26:30.726Z,100316.22
2023-02-22T10:29:41.574Z,100303.88
2023-02-22T10:32:47.994Z,100301.53
2023-02-22T10:35:52.684Z,100300.53
2023-02-22T10:39:11.133Z,100293.53
2023-02-22T10:42:14.342Z,100299.59
2023-02-22T10:45:22.842Z,100303.91
2023-02-22T10:48:26.818Z,100302.84
2023-02-22T10:51:30.635Z,100294.75
2023-02-22T10:54:41.035Z,100297.03
2023-02-22T10:57:49.758Z,100295.69
2023-02-22T11:00:52.660Z,100295.03
2023-02-22T11:04:04.617Z,100288.59
2023-02-22T11:07:09.351Z,100287.56
2023-02-22T11:10:12.212Z,100282.16
2023-02-22T11:13:18.892Z,100283.66
2023-02-22T11:16:27.895Z,100276.47
2023-02-22T11:19:33.848Z,100280.81
2023-02-22T11:22:42.381Z,100281.63
2023-02-22T11:25:45.424Z,100276.53
2023-02-22T11:28:50.383Z,100274.66
2023-02-22T11:31:54.915Z,100270.31
2023-02-22T11:35:29.143Z,100270.97
2023-02-22T11:38:34.313Z,100270.81
2023-02-22T11:41:37.323Z,100270.63
2023-02-22T11:44:44.015Z,100267.87
2023-02-22T11:47:52.607Z,100273.12
2023-02-22T11:51:16.801Z,100276.59
2023-02-22T11:54:31.478Z,100266.09
2023-02-22T11:57:34.769Z,100270.03
2023-02-22T12:00:54.044Z,100270.38
2023-02-22T12:04:23.923Z,100271.78
2023-02-22T12:07:36.440Z,100273.22
2023-02-22T12:10:57.848Z,100265.41
2023-02-22T12:14:21.879Z,100265.62
2023-02-22T12:17:48.152Z,100266.66
2023-02-22T12:21:01.583Z,100258.91
2023-02-22T12:24:14.340Z,100260.41
2023-02-22T12:27:26.543Z,100256.06
2023-02-22T12:30:38.773Z,100257.84
2023-02-22T12:34:07.919Z,100259.44
2023-02-22T12:38:01.829Z,100251.25
2023-02-22T12:41:27.063Z,100250.03
2023-02-22T12:44:37.287Z,100251.78
2023-02-22T12:47:49.604Z,100247.09
2023-02-22T12:50:58.448Z,100248.06
2023-02-22T12:54:14.254Z,100243.72
2023-02-22T12:57:42.410Z,100236.00
2023-02-22T13:00:51.237Z,100229.22
2023-02-22T13:03:55.849Z,100230.25
2023-02-22T13:07:06.885Z,100226.00
2023-02-22T13:10:20.445Z,100226.59
2023-02-22T13:13:55.759Z,100222.69
2023-02-22T13:17:06.846Z,100229.31
2023-02-22T13:20:31.468Z,100225.47
2023-02-22T13:23:46.217Z,100224.09
2023-02-22T13:27:09.424Z,100223.41
2023-02-22T13:30:30.352Z,100218.22
2023-02-22T13:33:42.282Z,100220.28
2023-02-22T13:36:48.843Z,100226.81
2023-02-22T13:40:26.310Z,100215.34
2023-02-22T13:44:01.410Z,100221.81
2023-02-22T13:47:42.253Z,100214.84
2023-02-22T13:51:09.668Z,100215.91
2023-02-22T13:54:40.336Z,100220.88
2023-02-22T13:57:49.913Z,100224.75
2023-02-22T14:00:55.898Z,100223.16
2023-02-22T14:04:23.698Z,100223.50
2023-02-22T14:07:45.530Z,100221.81
2023-02-22T14:10:59.562Z,100222.56
2023-02-22T14:14:02.341Z,100218.16
2023-02-22T14:17:22.193Z,100221.47
2023-02-22T14:20:35.304Z,100223.13
2023-02-22T14:23:49.048Z,100219.81
2023-02-22T14:27:01.572Z,100212.03
2023-02-22T14:30:05.684Z,100213.47
2023-02-22T14:33:46.317Z,100219.69
2023-02-22T14:37:07.713Z,100212.88
2023-02-22T14:40:25.908Z,100217.13
2023-02-22T14:43:29.425Z,100221.41
2023-02-22T14:46:36.360Z,100217.84
2023-02-22T14:49:45.313Z,100215.56
2023-02-22T14:53:01.643Z,100219.22
2023-02-22T14:56:08.667Z,100208.22
2023-02-22T14:59:17.443Z,100208.75
2023-02-22T15:02:22.837Z,100206.81
2023-02-22T15:05:30.441Z,100203.25
2023-02-22T15:08:34.475Z,100209.50
2023-02-22T15:11:37.408Z,100210.28
2023-02-22T15:14:41.824Z,100196.69
2023-02-22T15:17:46.434Z,100208.62
2023-02-22T15:20:56.371Z,100204.28
2023-02-22T15:24:08.073Z,100200.63
2023-02-22T15:27:19.537Z,100201.53
2023-02-22T15:30:30.113Z,100204.13
2023-02-22T15:33:38.143Z,100201.50
2023-02-22T15:36:43.045Z,100204.16
2023-02-22T15:39:46.034Z,100200.63
2023-02-22T15:42:54.063Z,100204.13
2023-02-22T15:45:58.253Z,100196.22
2023-02-22T15:49:28.983Z,100197.09
2023-02-22T15:52:31.943Z,100193.56
2023-02-22T15:55:41.104Z,100193.41
2023-02-22T15:58:46.869Z,100197.78
2023-02-22T16:01:53.295Z,100191.59
2023-02-22T16:05:00.776Z,100195.88
2023-02-22T16:08:04.168Z,100199.56
2023-02-22T16:11:30.148Z,100196.91
2023-02-22T16:14:37.019Z,100202.13
2023-02-22T16:17:55.904Z,100203.56
2023-02-22T16:21:13.056Z,100194.03
2023-02-22T16:24:27.349Z,100198.16
2023-02-22T16:27:30.222Z,100206.75
2023-02-22T16:30:39.428Z,100210.19
2023-02-22T16:33:44.432Z,100208.31
2023-02-22T16:36:51.700Z,100210.84
2023-02-22T16:39:55.475Z,100211.59
2023-02-22T16:43:00.927Z,100215.81
2023-02-22T16:46:06.953Z,100214.00
2023-02-22T16:49:12.206Z,100217.34
2023-02-22T16:52:15.326Z,100226.16
2023-02-22T16:55:20.423Z,100227.63
2023-02-22T16:58:27.928Z,100234.50
2023-02-22T17:01:35.154Z,100232.69
2023-02-22T17:04:39.629Z,100236.06
2023-02-22T17:07:43.082Z,100235.19
2023-02-22T17:10:46.454Z,100233.34
2023-02-22T17:13:52.138Z,100238.41
2023-02-22T17:16:54.923Z,100236.66
2023-02-22T17:19:57.717Z,100238.22
2023-02-22T17:23:06.484Z,100237.25
2023-02-22T17:26:09.366Z,100238.84
2023-02-22T17:29:13.761Z,100233.53
2023-02-22T17:32:16.734Z,100243.00
2023-02-22T17:35:23.245Z,100240.31
2023-02-22T17:38:29.048Z,100241.16
2023-02-22T17:41:32.078Z,100235.06
2023-02-22T17:44:35.346Z,100230.56
2023-02-22T17:47:39.033Z,100229.53
2023-02-22T17:50:43.761Z,100236.41
2023-02-22T17:53:47.026Z,100233.63
2023-02-22T17:56:50.046Z,100233.47
2023-02-22T17:59:53.325Z,100243.09
2023-02-22T18:03:01.337Z,100236.84
2023-02-22T18:06:06.002Z,100239.34
2023-02-22T18:09:10.935Z,100238.44
2023-02-22T18:12:14.322Z,100237.56
2023-02-22T18:15:19.602Z,100238.34
2023-02-22T18:18:23.121Z,100232.03
2023-02-22T18:21:26.860Z,100231.00
2023-02-22T18:24:36.506Z,100232.63
2023-02-22T18:27:39.538Z,100235.25
2023-02-22T18:30:42.742Z,100234.22
2023-02-22T18:33:47.538Z,100230.53
2023-02-22T18:36:54.733Z,100233.00
2023-02-22T18:39:58.212Z,100227.66
2023-02-22T18:43:01.363Z,100232.72
2023-02-22T18:46:18.947Z,100238.66
2023-02-22T18:49:22.259Z,100245.50
2023-02-22T18:52:24.777Z,100248.16
2023-02-22T18:55:27.871Z,100241.88
2023-02-22T18:58:32.775Z,100243.50
2023-02-22T19:01:38.803Z,100249.41
2023-02-22T19:04:44.133Z,100241.38
2023-02-22T19:07:47.784Z,100240.31
2023-02-22T19:10:50.541Z,100248.97
2023-02-22T19:13:57.644Z,100257.66
2023-02-22T19:17:02.809Z,100250.81
2023-02-22T19:20:07.343Z,100249.12
2023-02-22T19:23:10.510Z,100253.47
2023-02-22T19:26:20.011Z,100249.12
2023-02-22T19:29:23.884Z,100256.31
2023-02-22T19:32:27.173Z,100254.69
2023-02-22T19:35:30.092Z,100261.59
2023-02-22T19:38:33.434Z,100254.63
2023-02-22T19:41:36.505Z,100261.81
2023-02-22T19:44:39.838Z,100260.84
2023-02-22T19:47:42.490Z,100266.88
2023-02-22T19:50:49.439Z,100265.13
2023-02-22T19:53:53.077Z,100265.41
2023-02-22T19:56:58.077Z,100269.00
2023-02-22T20:00:10.901Z,100266.88
2023-02-22T20:03:15.678Z,100278.13
2023-02-22T20:06:18.583Z,100273.19
2023-02-22T20:09:27.689Z,100271.50
2023-02-22T20:12:30.722Z,100263.22
2023-02-22T20:15:34.440Z,100269.66
2023-02-22T20:18:37.277Z,100269.66
2023-02-22T20:21:40.449Z,100267.41
2023-02-22T20:24:43.342Z,100268.91
2023-02-22T20:27:46.727Z,100269.03
2023-02-22T20:30:51.489Z,100261.37
2023-02-22T20:33:56.492Z,100273.38
2023-02-22T20:37:00.554Z,100268.72
2023-02-22T20:40:05.248Z,100270.59
2023-02-22T20:43:08.508Z,100268.22
2023-02-22T20:46:11.386Z,100272.69
2023-02-22T20:49:17.711Z,100279.47
2023-02-22T20:52:39.336Z,100275.94
2023-02-22T20:55:51.675Z,100278.19
2023-02-22T20:59:00.488Z,100281.59
2023-02-22T21:02:03.460Z,100281.37
2023-02-22T21:05:25.546Z,100279.50
2023-02-22T21:08:28.455Z,100273.63
2023-02-22T21:11:31.993Z,100280.16
2023-02-22T21:14:34.994Z,100276.62
2023-02-22T21:17:37.956Z,100286.34
2023-02-22T21:20:43.274Z,100286.38
2023-02-22T21:23:50.265Z,100287.06
2023-02-22T21:26:53.598Z,100288.97
2023-02-22T21:29:58.604Z,100294.25
2023-02-22T21:33:02.233Z,100293.06
2023-02-22T21:36:15.866Z,100283.34
2023-02-22T21:39:19.201Z,100285.25
2023-02-22T21:42:21.962Z,100284.37
2023-02-22T21:45:26.148Z,100291.16
2023-02-22T21:48:29.527Z,100293.59
2023-02-22T21:51:32.912Z,100290.81
2023-02-22T21:54:35.928Z,100290.34
2023-02-22T21:57:38.828Z,100297.13
2023-02-22T22:00:44.935Z,100299.03
2023-02-22T22:03:48.296Z,100292.22
2023-02-22T22:06:53.728Z,100294.59
2023-02-22T22:09:56.927Z,100297.16
2023-02-22T22:13:00.201Z,100290.06
2023-02-22T22:16:05.932Z,100296.25
2023-02-22T22:19:09.192Z,100289.94
2023-02-22T22:22:12.841Z,100284.84
2023-02-22T22:25:18.964Z,100283.22
2023-02-22T22:28:21.765Z,100286.50
2023-02-22T22:31:26.458Z,100283.66
2023-02-22T22:34:29.552Z,100287.38
2023-02-22T22:37:32.420Z,100287.31
2023-02-22T22:40:35.568Z,100297.16
2023-02-22T22:43:38.459Z,100290.16
2023-02-22T22:46:41.683Z,100294.37
2023-02-22T22:49:45.425Z,100283.91
2023-02-22T22:52:49.035Z,100283.72
2023-02-22T22:55:51.832Z,100289.81
2023-02-22T22:58:56.944Z,100296.88
2023-02-22T23:02:02.946Z,100294.28
2023-02-22T23:05:08.275Z,100288.44
2023-02-22T23:08:12.897Z,100301.47
2023-02-22T23:11:16.519Z,100291.78
2023-02-22T23:14:32.826Z,100299.59
2023-02-22T23:17:42.433Z,100300.75
2023-02-22T23:20:45.275Z,100302.06
2023-02-22T23:23:51.616Z,100298.72
2023-02-22T23:26:59.941Z,100300.31
2023-02-22T23:30:02.957Z,100300.88
2023-02-22T23:33:05.783Z,100305.16
2023-02-22T23:36:11.178Z,100308.75
2023-02-22T23:39:15.477Z,100301.50
2023-02-22T23:42:18.361Z,100308.25
2023-02-22T23:45:24.755Z,100302.34
2023-02-22T23:48:30.074Z,100309.25
2023-02-22T23:51:39.349Z,100309.91
2023-02-22T23:54:46.494Z,100302.16
2023-02-22T23:57:49.313Z,100307.97
